Airfield :
LOGIN :

Register | Disclaimer

   EN    FR    IT 

 










Legend :    VFR   Marginal VFR   IFR   Intensive IFR   Very Intensive IFR
Visi :
Ceiling :
>= 8 km
>= 3000ft
5 to 8 km
1000 to 3000 ft
1500m to 5 km
500 to 1000 ft
800 to 1500m
200 to 500 ft
< 800m
< 200 ft
Symbols :   Thunderstorms  Fog  Heavy snow  Heavy precipitations  Wind > 20 kt
SIGMETs :     Misc.  Thunderstorms  Icing  Turbulence  Mountain Waves  Volcanic Ashes






- Airport Elevation : 121 ft
- IATA code : HUY


EGNJ - Humberside

CURRENT METAR :
  • 221750Z AUTO 23009KT 9999 FEW048/// 22/08 Q1003

EXPIRED METARs :
  • 221720Z AUTO 23011KT 9999 FEW039/// 23/06 Q1003
  • 221650Z 23011KT 9999 FEW030 23/08 Q1003
  • 221620Z 21013KT 9999 FEW030 24/10 Q1003
  • 221550Z 21017KT 9999 FEW030 25/11 Q1003
  • 221520Z 22015KT 9999 FEW030 25/11 Q1003

TAF TAF EGNJ
Valid from the 22 at 18:00 until the 23 at 03:00 UTC


221659Z 2218/2303 22009KT 9999 SCT030
PROB30
TEMPO 2300/2303 6000 SHRA BKN012
ATIS : +44 1652 682 020



MET'MAP, your aeronautical weather chart ! - Copyright ORBIFLY December 2007 - Disclaimer

ORBIFLY MET'MAP TEAM :

Programming & Development : Alexandra Zaïnal
Concept & original design : Baudouin d'Aumeries
Assistance for programming : Marc-Olivier Méhu
Technical & hardware support : Manuel Goepfert

Contact : metmap@orbifly.com




SOURCES & CREDITS :

   NOAA